Ringwood, United Kingdom
Current Conditions -  °F | °C
As of 3:50 PM on Thursday 30 Oct 2014 (Local Time) from EGHH Reporting Station
Broken Clouds Broken Clouds  
Wind Chill: 61°   Ceiling: 700
Heat Index: 61°   Visibility: 4mi
Dew Point: 59°   Wind: 7mph
Humidity: 94%   Direction: 180°S
Pressure: 30.03"   Gusts: NA
Location:  50.85°N, 1.79°W
Report Text: EGHH 301550Z 18006KT 150V220 7000 BKN007 16/15 Q1017
Loading
Personal Weather Stations






























Interactive Weather Map
Tropical Storm Tracking
New forecast layout! Learn more

10-Day Weather Forecast

Advertisements
Track Severe Weather on mobile